Terminal Aerodrome Forecast
Issued by NWS Flagstaff, AZ

Home | Current Version | Previous Version | Text Only | Print | Product List | Glossary On
Versions: 1 2 3 4 5 6 7 8 9 10 11 12 13 14 15 16 17 18 19
000
FTUS45 KFGZ 190500
TAFFLG
TAF
KFLG 190535Z 1906/2006 00000KT P6SM SCT050
     FM191600 23007KT P6SM SCT050
     FM192000 25006KT P6SM BKN050
     FM200200 VRB03KT P6SM SCT050=

USA.gov is the U.S. government's official web portal to all federal, state and local government web resources and services.